Time;durP1;ratioP1;P1;durP2;ratioP2;P2;SDS_P1;SDS_P2;PMS_P1;PMS_P2;Temp;Humidity;BMP_temperature;BMP_pressure;BME280_temperature;BME280_humidity;BME280_pressure;Samples;Min_cycle;Max_cycle;Signal;HPM_P1;HPM_P2
2022/01/21 00:00:24;;;;;;;;;;;;;;;-2.66;82.82;98315.34;1693325;85;21117;-68
2022/01/21 00:02:50;;;;;;;;;;;;;;;-2.68;82.17;98310.77;1692884;85;20436;-67
2022/01/21 00:05:18;;;;;;;;;;;;;;;-2.69;81.96;98309.95;1692997;85;20456;-68
2022/01/21 00:07:45;;;;;;;;;;;;;;;-2.67;81.38;98308.35;1692989;85;20267;-66
2022/01/21 00:10:13;;;;;;;;;;;;;;;-2.69;80.73;98311.30;1692968;85;20086;-66
2022/01/21 00:12:39;;;;;;;;;;;;;;;-2.68;81.00;98309.42;1693279;85;20626;-66
2022/01/21 00:15:07;;;;;;;;;;;;;;;-2.69;81.07;98299.20;1693142;85;20133;-66
2022/01/21 00:17:35;;;;;;;;;;;;;;;-2.70;80.13;98291.41;1692978;85;20201;-66
2022/01/21 00:31:01;;;;;;;;;;;;;;;-2.73;80.44;98293.27;1693436;85;20121;-66
2022/01/21 00:33:27;;;;;;;;;;;;;;;-2.73;80.64;98294.62;1693100;85;20097;-66
2022/01/21 00:35:53;;;;;;;;;;;;;;;-2.75;80.14;98298.91;1693462;85;20077;-66
2022/01/21 00:38:22;;;;;;;;;;;;;;;-2.76;80.63;98296.48;1693185;85;21161;-67
2022/01/21 00:40:48;;;;;;;;;;;;;;;-2.77;80.63;98290.83;1693564;85;20446;-67
2022/01/21 00:43:28;;;;;;;;;;;;;;;-2.80;80.83;98296.19;1693374;85;20097;-68
2022/01/21 00:45:42;;;;;;;;;;;;;;;-2.81;80.50;98302.63;1691572;84;20122;-68
2022/01/21 00:48:08;;;;;;;;;;;;;;;-2.81;80.57;98303.97;1693195;85;20443;-68
2022/01/21 00:50:35;;;;;;;;;;;;;;;-2.83;80.43;98298.05;1693113;85;21808;-67
2022/01/21 00:53:02;;;;;;;;;;;;;;;-2.86;80.08;98283.80;1693020;85;20090;-67
2022/01/21 00:55:30;;;;;;;;;;;;;;;-2.89;80.06;98291.59;1693059;85;20121;-67
2022/01/21 00:57:56;;;;;;;;;;;;;;;-2.94;80.16;98276.25;1693313;85;20093;-67
2022/01/21 01:00:22;;;;;;;;;;;;;;;-2.98;80.12;98277.03;1693305;85;20420;-67
2022/01/21 01:02:49;;;;;;;;;;;;;;;-3.02;80.71;98287.48;1693405;85;21771;-67
2022/01/21 01:05:16;;;;;;;;;;;;;;;-3.04;80.24;98290.95;1693101;85;20171;-67
2022/01/21 01:07:42;;;;;;;;;;;;;;;-3.09;79.98;98290.91;1693182;85;20109;-67
2022/01/21 01:10:21;;;;;;;;;;;;;;;-3.11;79.85;98303.79;1693048;85;20122;-67
2022/01/21 01:13:00;;;;;;;;;;;;;;;-3.13;80.20;98316.66;1692051;84;20114;-67
2022/01/21 01:20:48;;;;;;;;;;;;;;;-3.08;78.47;98293.87;1678321;84;20073;-67
2022/01/21 01:23:39;;;;;;;;;;;;;;;-3.04;77.63;98296.32;1693283;85;20455;-67
2022/01/21 01:28:37;;;;;;;;;;;;;;;-3.06;77.34;98289.06;1693034;85;21095;-67
2022/01/21 01:31:03;;;;;;;;;;;;;;;-3.13;76.92;98293.30;1692951;85;20429;-67
2022/01/21 01:33:36;;;;;;;;;;;;;;;-3.18;76.92;98287.09;1693411;85;20451;-68
2022/01/21 01:35:58;;;;;;;;;;;;;;;-3.23;76.44;98277.66;1692639;84;20142;-67
2022/01/21 01:38:41;;;;;;;;;;;;;;;-3.28;76.42;98279.77;1693148;85;20425;-67
2022/01/21 01:40:58;;;;;;;;;;;;;;;-3.35;76.68;98275.95;1691473;84;21307;-67
2022/01/21 01:51:21;;;;;;;;;;;;;;;-3.55;77.33;98277.16;1689335;85;20090;-66
2022/01/21 01:53:54;;;;;;;;;;;;;;;-3.59;77.31;98270.69;1689345;85;21123;-66
2022/01/21 01:56:25;;;;;;;;;;;;;;;-3.63;77.42;98270.11;1689361;85;20102;-67
2022/01/21 01:58:51;;;;;;;;;;;;;;;-3.66;77.35;98271.42;1689419;84;20413;-67
2022/01/21 02:01:17;;;;;;;;;;;;;;;-3.67;78.65;98276.52;1689319;85;20130;-67
2022/01/21 02:03:44;;;;;;;;;;;;;;;-3.69;77.94;98274.62;1689630;85;20473;-67
2022/01/21 02:06:11;;;;;;;;;;;;;;;-3.72;78.09;98276.47;1689321;85;23323;-67
2022/01/21 02:08:37;;;;;;;;;;;;;;;-3.76;78.35;98273.48;1689527;85;20170;-67
2022/01/21 02:11:03;;;;;;;;;;;;;;;-3.80;78.33;98272.38;1689329;85;20118;-66
2022/01/21 02:13:34;;;;;;;;;;;;;;;-3.84;78.53;98275.28;1689303;85;20098;-65
2022/01/21 02:16:30;;;;;;;;;;;;;;;-3.85;78.70;98278.21;1689134;85;20085;-65
2022/01/21 02:21:30;;;;;;;;;;;;;;;-3.93;78.44;98258.03;1689239;85;20086;-64
2022/01/21 02:24:03;;;;;;;;;;;;;;;-3.97;78.42;98259.59;1689571;85;20462;-64
2022/01/21 02:26:30;;;;;;;;;;;;;;;-3.99;78.54;98261.72;1688972;84;20089;-64
2022/01/21 02:28:59;;;;;;;;;;;;;;;-4.02;78.81;98263.03;1689340;85;20436;-64
2022/01/21 02:31:24;;;;;;;;;;;;;;;-4.04;78.98;98265.16;1689717;85;21174;-64
2022/01/21 02:33:51;;;;;;;;;;;;;;;-4.06;79.09;98251.77;1689492;85;20085;-64
2022/01/21 02:36:17;;;;;;;;;;;;;;;-4.11;79.20;98256.53;1689261;85;20097;-66
2022/01/21 02:38:43;;;;;;;;;;;;;;;-4.14;79.38;98249.53;1689292;85;20101;-65
2022/01/21 02:41:10;;;;;;;;;;;;;;;-4.18;79.65;98251.91;1689409;85;20126;-65
2022/01/21 02:43:36;;;;;;;;;;;;;;;-4.21;79.81;98244.37;1689463;85;21915;-63
2022/01/21 02:46:06;;;;;;;;;;;;;;;-4.25;80.13;98251.82;1689126;83;20424;-64
2022/01/21 02:48:36;;;;;;;;;;;;;;;-4.28;80.39;98253.66;1689429;84;20126;-64
2022/01/21 02:51:00;;;;;;;;;;;;;;;-4.30;80.57;98261.95;1688745;84;20097;-63
2022/01/21 02:56:19;;;;;;;;;;;;;;;-4.34;80.96;98247.44;1689482;85;20645;-64
2022/01/21 02:58:46;;;;;;;;;;;;;;;-4.36;81.15;98245.53;1689212;85;20140;-64
2022/01/21 03:01:14;;;;;;;;;;;;;;;-4.36;81.48;98249.02;1689566;85;20118;-63
2022/01/21 03:03:43;;;;;;;;;;;;;;;-4.35;81.68;98247.97;1689437;85;20099;-63
2022/01/21 03:06:09;;;;;;;;;;;;;;;-4.30;81.92;98234.34;1689414;85;20117;-63
2022/01/21 03:08:37;;;;;;;;;;;;;;;-4.29;82.08;98236.77;1689438;85;21944;-63
2022/01/21 03:11:04;;;;;;;;;;;;;;;-4.27;82.21;98229.83;1689286;85;20094;-64
2022/01/21 03:13:30;;;;;;;;;;;;;;;-4.26;82.35;98238.95;1671269;85;20118;-64
2022/01/21 03:15:57;;;;;;;;;;;;;;;-4.25;82.51;98229.85;1689359;85;20098;-64
2022/01/21 03:18:23;;;;;;;;;;;;;;;-4.24;82.74;98227.98;1689364;85;20101;-64
2022/01/21 03:20:49;;;;;;;;;;;;;;;-4.20;83.04;98234.45;1689374;85;21139;-65
2022/01/21 03:23:18;;;;;;;;;;;;;;;-4.18;83.16;98230.47;1689202;83;20121;-65
2022/01/21 03:25:46;;;;;;;;;;;;;;;-4.16;83.17;98228.34;1689752;85;20109;-64
2022/01/21 03:28:13;;;;;;;;;;;;;;;-4.14;83.43;98223.54;1689285;85;20090;-64
2022/01/21 03:30:40;;;;;;;;;;;;;;;-4.12;83.41;98217.92;1689570;85;20421;-64
2022/01/21 03:33:08;;;;;;;;;;;;;;;-4.11;83.45;98210.97;1688930;84;21158;-65
2022/01/21 03:35:36;;;;;;;;;;;;;;;-4.10;83.40;98203.20;1689280;85;20106;-65
2022/01/21 03:38:03;;;;;;;;;;;;;;;-4.08;83.35;98202.95;1689367;85;20117;-65
2022/01/21 03:40:30;;;;;;;;;;;;;;;-4.09;83.28;98202.15;1689258;85;20443;-65
2022/01/21 03:42:56;;;;;;;;;;;;;;;-4.10;83.12;98197.04;1689262;85;20160;-65
2022/01/21 03:45:22;;;;;;;;;;;;;;;-4.13;83.13;98191.66;1687876;84;21066;-65
2022/01/21 03:47:52;;;;;;;;;;;;;;;-4.15;83.22;98203.69;1688694;83;20100;-65
2022/01/21 03:50:32;;;;;;;;;;;;;;;-4.20;83.39;98199.09;1676350;85;20088;-65
2022/01/21 03:53:00;;;;;;;;;;;;;;;-4.23;83.54;98193.42;1676258;85;20093;-65
2022/01/21 03:55:27;;;;;;;;;;;;;;;-4.26;83.72;98194.73;1676260;85;20143;-65
2022/01/21 03:57:53;;;;;;;;;;;;;;;-4.27;83.92;98199.82;1652724;85;21823;-65
2022/01/21 04:00:22;;;;;;;;;;;;;;;-4.27;84.02;98204.37;1676368;85;20088;-65
2022/01/21 04:02:50;;;;;;;;;;;;;;;-4.28;84.20;98196.05;1676202;85;20444;-65
2022/01/21 04:05:18;;;;;;;;;;;;;;;-4.29;84.32;98198.45;1676214;85;20499;-65
2022/01/21 04:07:45;;;;;;;;;;;;;;;-4.28;84.70;98187.48;1676581;85;20124;-65
2022/01/21 04:10:13;;;;;;;;;;;;;;;-4.26;85.26;98196.08;1676312;85;21052;-65
2022/01/21 04:12:39;;;;;;;;;;;;;;;-4.21;85.25;98196.13;1676615;85;20124;-65
2022/01/21 04:15:07;;;;;;;;;;;;;;;-4.15;85.22;98200.48;1676415;85;20131;-65
2022/01/21 04:17:33;;;;;;;;;;;;;;;-4.11;85.12;98200.78;1676624;85;20384;-65
2022/01/21 04:20:00;;;;;;;;;;;;;;;-4.07;85.21;98194.66;1676365;84;20092;-65
2022/01/21 04:22:26;;;;;;;;;;;;;;;-4.04;85.12;98202.70;1676318;85;21135;-65
2022/01/21 04:24:54;;;;;;;;;;;;;;;-4.03;85.25;98197.08;1676381;85;20124;-66
2022/01/21 04:27:20;;;;;;;;;;;;;;;-4.01;85.22;98189.59;1676612;85;20095;-66
2022/01/21 04:29:46;;;;;;;;;;;;;;;-3.98;85.28;98192.30;1676507;84;20458;-66
2022/01/21 04:32:15;;;;;;;;;;;;;;;-3.97;85.33;98193.11;1676558;85;20108;-66
2022/01/21 04:34:42;;;;;;;;;;;;;;;-3.99;85.32;98191.48;1681021;84;21902;-67
2022/01/21 04:37:12;;;;;;;;;;;;;;;-4.01;85.43;98183.42;1692335;83;20117;-67
2022/01/21 04:39:58;;;;;;;;;;;;;;;-4.06;85.50;98189.58;1684973;84;20489;-66
2022/01/21 04:47:39;;;;;;;;;;;;;;;-4.15;86.53;98191.62;1690230;84;21204;-67
2022/01/21 04:50:11;;;;;;;;;;;;;;;-4.18;86.84;98199.64;1688406;84;20143;-67
2022/01/21 04:52:37;;;;;;;;;;;;;;;-4.17;87.05;98196.44;1689270;83;20102;-67
2022/01/21 04:55:08;;;;;;;;;;;;;;;-4.17;87.22;98193.22;1689576;84;21989;-68
2022/01/21 04:57:36;;;;;;;;;;;;;;;-4.17;87.42;98195.09;1690358;84;20200;-68
2022/01/21 05:00:05;;;;;;;;;;;;;;;-4.20;87.58;98197.75;1688356;84;21046;-67
2022/01/21 05:02:34;;;;;;;;;;;;;;;-4.22;87.68;98197.19;1690149;84;20138;-67
2022/01/21 05:05:02;;;;;;;;;;;;;;;-4.24;87.84;98203.86;1691113;84;20486;-67
2022/01/21 05:07:33;;;;;;;;;;;;;;;-4.28;88.17;98200.88;1688968;84;20137;-66
2022/01/21 05:09:58;;;;;;;;;;;;;;;-4.30;88.42;98201.66;1688774;84;20150;-67
2022/01/21 05:12:27;;;;;;;;;;;;;;;-4.32;88.56;98209.95;1701648;84;21088;-66
2022/01/21 05:17:28;;;;;;;;;;;;;;;-4.32;88.98;98205.13;1704790;83;20114;-65
2022/01/21 05:19:54;;;;;;;;;;;;;;;-4.31;89.21;98212.10;1689547;83;20124;-66
2022/01/21 05:22:25;;;;;;;;;;;;;;;-4.33;89.40;98202.98;1675027;85;20156;-66
2022/01/21 05:24:53;;;;;;;;;;;;;;;-4.34;89.51;98201.36;1676598;85;21929;-66
2022/01/21 05:27:19;;;;;;;;;;;;;;;-4.35;89.62;98196.25;1676287;85;20455;-66
2022/01/21 05:29:47;;;;;;;;;;;;;;;-4.37;89.65;98199.71;1676441;85;20120;-66
2022/01/21 05:32:24;;;;;;;;;;;;;;;-4.40;89.84;98197.53;1676468;85;20117;-66
2022/01/21 05:35:09;;;;;;;;;;;;;;;-4.43;89.95;98198.84;1676147;85;20125;-66
2022/01/21 05:37:45;;;;;;;;;;;;;;;-4.45;90.05;98192.93;1676362;85;21147;-66
2022/01/21 05:40:31;;;;;;;;;;;;;;;-4.48;90.20;98201.47;1676582;84;20448;-65
2022/01/21 05:42:59;;;;;;;;;;;;;;;-4.50;90.34;98202.78;1676505;85;20113;-65
2022/01/21 05:48:20;;;;;;;;;;;;;;;-4.52;90.38;98208.39;1654358;85;20147;-69
2022/01/21 05:50:48;;;;;;;;;;;;;;;-4.53;90.42;98204.63;1644997;85;21155;-66
2022/01/21 05:53:19;;;;;;;;;;;;;;;-4.52;90.42;98204.38;1687829;85;20158;-69
2022/01/21 05:56:02;;;;;;;;;;;;;;;-4.51;90.36;98215.89;1690773;84;20099;-68
2022/01/21 05:58:29;;;;;;;;;;;;;;;-4.48;90.29;98216.73;1682936;85;20100;-68
2022/01/21 06:00:59;;;;;;;;;;;;;;;-4.45;90.25;98203.65;1690517;85;20119;-69
2022/01/21 06:03:25;;;;;;;;;;;;;;;-4.40;90.17;98222.45;1690705;85;21109;-67
2022/01/21 06:05:52;;;;;;;;;;;;;;;-4.36;90.11;98214.20;1690494;85;20116;-67
2022/01/21 06:08:18;;;;;;;;;;;;;;;-4.32;90.06;98220.67;1690488;85;20087;-67
2022/01/21 06:10:45;;;;;;;;;;;;;;;-4.26;89.84;98220.19;1690774;85;20096;-67
2022/01/21 06:13:15;;;;;;;;;;;;;;;-4.23;89.67;98227.73;1690496;85;20087;-68
2022/01/21 06:15:39;;;;;;;;;;;;;;;-4.22;89.41;98217.82;1685557;83;21219;-66
2022/01/21 06:18:06;;;;;;;;;;;;;;;-4.21;89.11;98216.76;1664114;86;20129;-67
2022/01/21 06:20:32;;;;;;;;;;;;;;;-4.22;88.97;98220.50;1664110;85;20118;-66
2022/01/21 06:22:58;;;;;;;;;;;;;;;-4.22;88.92;98230.69;1663976;86;20102;-66
2022/01/21 06:25:24;;;;;;;;;;;;;;;-4.24;88.82;98220.75;1664145;86;20132;-69
2022/01/21 06:27:51;;;;;;;;;;;;;;;-4.19;88.88;98226.16;1663843;86;21166;-70
2022/01/21 06:30:17;;;;;;;;;;;;;;;-4.16;88.74;98233.70;1663642;86;21675;-68
2022/01/21 06:32:43;;;;;;;;;;;;;;;-4.12;88.70;98228.64;1663826;86;20090;-66
2022/01/21 06:35:10;;;;;;;;;;;;;;;-4.08;88.57;98223.87;1663774;86;20142;-67
2022/01/21 06:37:36;;;;;;;;;;;;;;;-4.01;88.54;98223.11;1638907;86;20161;-66
2022/01/21 06:40:06;;;;;;;;;;;;;;;-3.94;88.34;98224.77;1664272;86;21079;-66
2022/01/21 06:42:32;;;;;;;;;;;;;;;-3.91;88.02;98214.88;1664423;86;20126;-66
2022/01/21 06:45:00;;;;;;;;;;;;;;;-3.88;87.98;98216.52;1664776;86;20090;-67
2022/01/21 06:47:28;;;;;;;;;;;;;;;-3.84;87.90;98212.27;1685044;84;20113;-77
2022/01/21 06:49:54;;;;;;;;;;;;;;;-3.79;87.80;98226.25;1698222;83;20337;-77
2022/01/21 06:52:21;;;;;;;;;;;;;;;-3.73;87.47;98223.36;1698947;83;21182;-77
2022/01/21 06:54:48;;;;;;;;;;;;;;;-3.66;87.54;98219.94;1693086;83;20085;-75
2022/01/21 06:57:15;;;;;;;;;;;;;;;-3.57;87.38;98225.64;1692994;85;20125;-75
2022/01/21 06:59:41;;;;;;;;;;;;;;;-3.34;87.46;98215.86;1693241;85;20089;-74
2022/01/21 07:02:07;;;;;;;;;;;;;;;-3.10;86.60;98226.21;1693110;85;20126;-74
2022/01/21 07:04:34;;;;;;;;;;;;;;;-2.96;85.71;98224.69;1707764;83;21893;-75
2022/01/21 07:07:01;;;;;;;;;;;;;;;-2.90;85.12;98226.33;1705595;83;20097;-75
2022/01/21 07:09:28;;;;;;;;;;;;;;;-2.87;84.95;98224.97;1697923;83;20074;-75
2022/01/21 07:11:56;;;;;;;;;;;;;;;-2.87;84.62;98220.41;1704365;82;20133;-76
2022/01/21 07:14:23;;;;;;;;;;;;;;;-2.86;84.71;98226.59;1693100;85;20193;-75
2022/01/21 07:16:50;;;;;;;;;;;;;;;-2.87;84.76;98227.13;1693199;85;40192;-73
2022/01/21 07:19:17;;;;;;;;;;;;;;;-2.88;84.70;98234.91;1693068;85;20094;-74
2022/01/21 07:21:43;;;;;;;;;;;;;;;-2.86;84.94;98235.45;1693031;85;20122;-72
2022/01/21 07:24:09;;;;;;;;;;;;;;;-2.84;84.84;98236.53;1693038;85;20086;-74
2022/01/21 07:26:36;;;;;;;;;;;;;;;-2.74;84.87;98234.71;1693230;85;20516;-73
2022/01/21 07:29:02;;;;;;;;;;;;;;;-2.52;84.60;98228.36;1693059;85;23155;-73
2022/01/21 07:31:29;;;;;;;;;;;;;;;-2.41;83.65;98247.48;1701330;83;20171;-73
2022/01/21 07:33:55;;;;;;;;;;;;;;;-2.23;83.24;98237.58;1691633;83;20130;-77
2022/01/21 07:36:21;;;;;;;;;;;;;;;-1.93;82.45;98222.05;1692298;85;20138;-72
2022/01/21 07:38:47;;;;;;;;;;;;;;;-1.60;80.95;98232.01;1692324;85;20181;-67
2022/01/21 07:41:14;;;;;;;;;;;;;;;-1.24;79.77;98225.55;1692097;85;21217;-67
2022/01/21 07:43:40;;;;;;;;;;;;;;;-0.96;78.15;98224.66;1692391;83;20145;-66
2022/01/21 07:46:06;;;;;;;;;;;;;;;-0.68;77.06;98231.59;1692030;84;20181;-69
2022/01/21 07:48:33;;;;;;;;;;;;;;;-0.57;74.48;98220.75;1702558;84;20585;-67
2022/01/21 07:50:59;;;;;;;;;;;;;;;-0.58;74.52;98224.56;1703853;84;20174;-66
2022/01/21 07:53:26;;;;;;;;;;;;;;;-0.44;74.31;98220.16;1699218;83;23332;-69
2022/01/21 07:55:52;;;;;;;;;;;;;;;-0.21;73.74;98229.50;1702961;83;20113;-67
2022/01/21 07:58:19;;;;;;;;;;;;;;;0.01;71.71;98233.94;1695227;83;20129;-67
2022/01/21 08:00:46;;;;;;;;;;;;;;;0.14;70.98;98227.92;1702662;83;20547;-67
2022/01/21 08:03:13;;;;;;;;;;;;;;;0.19;70.52;98231.13;1702716;83;20463;-67
2022/01/21 08:05:42;;;;;;;;;;;;;;;0.32;70.81;98217.00;1691583;85;21172;-66
2022/01/21 08:08:09;;;;;;;;;;;;;;;0.42;68.53;98224.22;1691813;85;20228;-66
2022/01/21 08:10:36;;;;;;;;;;;;;;;0.32;68.30;98215.11;1691636;85;20160;-66
2022/01/21 08:13:02;;;;;;;;;;;;;;;0.28;68.66;98222.70;1691949;85;20170;-66
2022/01/21 08:15:28;;;;;;;;;;;;;;;0.20;68.65;98238.14;1691625;85;20133;-66
2022/01/21 08:17:55;;;;;;;;;;;;;;;-0.01;68.63;98226.15;1691570;85;21059;-67
2022/01/21 08:20:21;;;;;;;;;;;;;;;-0.15;68.97;98228.39;1691346;85;21700;-68
2022/01/21 08:22:47;;;;;;;;;;;;;;;-0.04;70.17;98237.50;1690674;85;20180;-66
2022/01/21 08:25:14;;;;;;;;;;;;;;;0.37;69.49;98239.91;1690792;85;20153;-66
2022/01/21 08:27:41;;;;;;;;;;;;;;;0.61;67.61;98239.44;1690979;85;20138;-69
2022/01/21 08:30:09;;;;;;;;;;;;;;;0.50;67.52;98231.17;1690742;83;21170;-69
2022/01/21 08:32:37;;;;;;;;;;;;;;;0.32;67.61;98238.59;1696165;83;20121;-68
2022/01/21 08:35:06;;;;;;;;;;;;;;;-0.04;67.98;98225.36;1706309;83;20612;-68
2022/01/21 08:37:32;;;;;;;;;;;;;;;-0.48;69.33;98232.58;1690665;85;20177;-68
2022/01/21 08:39:58;;;;;;;;;;;;;;;-0.87;70.58;98237.84;1690746;85;20197;-66
2022/01/21 08:42:24;;;;;;;;;;;;;;;-1.20;72.00;98218.53;1690819;85;21059;-66
2022/01/21 08:44:51;;;;;;;;;;;;;;;-1.38;72.78;98222.59;1690562;85;20440;-65
2022/01/21 08:47:20;;;;;;;;;;;;;;;-1.52;73.69;98219.36;1690926;84;20119;-66
2022/01/21 08:49:45;;;;;;;;;;;;;;;-1.61;73.95;98231.73;1708885;83;20176;-66
2022/01/21 08:52:18;;;;;;;;;;;;;;;-1.66;74.32;98227.97;1699930;83;20132;-69
2022/01/21 08:54:39;;;;;;;;;;;;;;;-1.68;74.57;98225.28;1720475;83;20669;-71
2022/01/21 08:57:05;;;;;;;;;;;;;;;-1.73;73.77;98223.39;1721125;83;20451;-68
2022/01/21 08:59:32;;;;;;;;;;;;;;;-1.77;74.12;98214.81;1721184;83;20135;-67
2022/01/21 09:01:58;;;;;;;;;;;;;;;-1.77;74.46;98230.41;1721443;83;20422;-69
2022/01/21 09:04:24;;;;;;;;;;;;;;;-1.71;74.26;98225.27;1720696;83;20325;-68
2022/01/21 09:06:51;;;;;;;;;;;;;;;-1.55;73.64;98199.17;1720517;83;22721;-68
2022/01/21 09:09:17;;;;;;;;;;;;;;;-1.32;72.66;98227.97;1721269;83;20123;-68
2022/01/21 09:11:44;;;;;;;;;;;;;;;-1.09;72.30;98222.80;1721542;83;20136;-67
2022/01/21 09:14:10;;;;;;;;;;;;;;;-1.04;70.87;98216.59;1741557;82;20173;-69
2022/01/21 09:16:37;;;;;;;;;;;;;;;-0.95;71.01;98202.03;1721109;83;20146;-68
2022/01/21 09:19:04;;;;;;;;;;;;;;;-0.91;70.50;98203.91;1741596;82;21143;-67
2022/01/21 09:21:33;;;;;;;;;;;;;;;-1.01;70.52;98202.58;1721222;83;20165;-69
2022/01/21 09:23:59;;;;;;;;;;;;;;;-1.16;70.62;98212.07;1738937;82;20443;-68
2022/01/21 09:26:26;;;;;;;;;;;;;;;-1.29;71.76;98204.01;1705215;83;20141;-70
2022/01/21 09:28:52;;;;;;;;;;;;;;;-1.28;72.25;98201.58;1693419;85;20122;-69
2022/01/21 09:31:19;;;;;;;;;;;;;;;-1.29;71.92;98196.47;1693065;85;21161;-66
2022/01/21 09:33:46;;;;;;;;;;;;;;;-1.38;72.18;98211.83;1693367;85;20436;-68
2022/01/21 09:36:12;;;;;;;;;;;;;;;-1.54;72.93;98214.25;1692194;85;20118;-68
2022/01/21 09:38:39;;;;;;;;;;;;;;;-1.67;73.81;98218.81;1692361;85;20133;-67
2022/01/21 09:41:06;;;;;;;;;;;;;;;-1.82;74.18;98202.70;1692807;85;20098;-67
2022/01/21 09:43:33;;;;;;;;;;;;;;;-1.93;74.79;98219.36;1693311;85;21170;-68
2022/01/21 09:46:04;;;;;;;;;;;;;;;-2.03;75.65;98206.70;1678944;85;20097;-68
2022/01/21 09:48:30;;;;;;;;;;;;;;;-2.11;75.83;98193.78;1696954;83;20085;-68
2022/01/21 09:50:58;;;;;;;;;;;;;;;-2.17;76.37;98212.32;1693015;85;20113;-67
2022/01/21 09:53:28;;;;;;;;;;;;;;;-2.21;76.92;98193.76;1692681;85;20149;-68
2022/01/21 09:55:59;;;;;;;;;;;;;;;-2.25;77.51;98210.14;1692476;85;21837;-68
2022/01/21 09:58:28;;;;;;;;;;;;;;;-2.27;77.79;98195.36;1702564;83;20127;-69
2022/01/21 10:00:57;;;;;;;;;;;;;;;-2.27;78.03;98200.73;1698197;83;20117;-69
2022/01/21 10:03:23;;;;;;;;;;;;;;;-2.28;77.65;98185.67;1691555;85;20205;-69
2022/01/21 10:05:51;;;;;;;;;;;;;;;-2.29;77.61;98201.00;1691329;85;20176;-68
2022/01/21 10:08:20;;;;;;;;;;;;;;;-2.28;77.93;98213.36;1691769;85;23351;-68
2022/01/21 10:10:48;;;;;;;;;;;;;;;-2.23;77.90;98183.81;1678372;85;20102;-68
2022/01/21 10:13:15;;;;;;;;;;;;;;;-2.21;78.57;98219.84;1692547;85;20180;-69
2022/01/21 10:15:41;;;;;;;;;;;;;;;-2.22;77.76;98209.62;1692453;85;20436;-68
2022/01/21 10:18:15;;;;;;;;;;;;;;;-2.26;77.90;98197.78;1692582;85;20158;-69
2022/01/21 10:21:03;;;;;;;;;;;;;;;-2.28;78.29;98188.36;1692466;85;21134;-69
2022/01/21 10:23:30;;;;;;;;;;;;;;;-2.28;78.88;98181.11;1691357;85;20157;-69
2022/01/21 10:26:05;;;;;;;;;;;;;;;-2.27;78.90;98181.38;1692365;85;20146;-69
2022/01/21 10:28:34;;;;;;;;;;;;;;;-2.29;79.86;98175.45;1700002;83;20161;-69
2022/01/21 10:31:17;;;;;;;;;;;;;;;-2.32;78.81;98177.36;1701393;83;20173;-69
2022/01/21 10:33:52;;;;;;;;;;;;;;;-2.37;79.03;98191.59;1692463;85;20832;-68
2022/01/21 10:36:26;;;;;;;;;;;;;;;-2.38;79.50;98187.30;1692040;85;20110;-68
2022/01/21 10:39:08;;;;;;;;;;;;;;;-2.39;79.22;98190.25;1692473;85;20162;-68
2022/01/21 10:41:31;;;;;;;;;;;;;;;-2.41;79.21;98186.48;1691673;84;20581;-68
2022/01/21 10:44:04;;;;;;;;;;;;;;;-2.43;79.15;98191.84;1692477;85;20146;-68
2022/01/21 10:46:30;;;;;;;;;;;;;;;-2.45;79.18;98192.11;1692252;84;21153;-68
2022/01/21 10:49:10;;;;;;;;;;;;;;;-2.47;79.34;98194.79;1689528;84;20121;-68
2022/01/21 10:51:39;;;;;;;;;;;;;;;-2.50;79.70;98187.25;1689186;85;20194;-68
2022/01/21 10:54:16;;;;;;;;;;;;;;;-2.51;79.78;98199.08;1687453;84;20516;-68
2022/01/21 10:57:08;;;;;;;;;;;;;;;-2.51;80.03;98191.02;1689295;85;20094;-68
2022/01/21 10:59:50;;;;;;;;;;;;;;;-2.54;80.00;98195.03;1669867;86;21091;-68
2022/01/21 11:02:42;;;;;;;;;;;;;;;-2.56;80.13;98186.43;1669963;86;20101;-68
2022/01/21 11:05:14;;;;;;;;;;;;;;;-2.56;80.02;98199.05;1682618;84;20444;-68
2022/01/21 11:07:48;;;;;;;;;;;;;;;-2.58;80.28;98205.23;1689270;84;20513;-68
2022/01/21 11:10:34;;;;;;;;;;;;;;;-2.57;80.31;98202.81;1689676;85;20126;-68
2022/01/21 11:13:03;;;;;;;;;;;;;;;-2.56;79.88;98197.17;1689330;85;20106;-68
2022/01/21 11:15:39;;;;;;;;;;;;;;;-2.56;79.82;98200.40;1689230;85;20086;-68
2022/01/21 11:18:07;;;;;;;;;;;;;;;-2.55;80.09;98191.27;1689172;84;20085;-68
2022/01/21 11:20:39;;;;;;;;;;;;;;;-2.53;79.69;98201.22;1689312;85;20085;-68
2022/01/21 11:23:05;;;;;;;;;;;;;;;-2.53;79.71;98193.97;1689280;85;20098;-68
2022/01/21 11:25:47;;;;;;;;;;;;;;;-2.52;79.95;98190.20;1689459;85;21861;-68
2022/01/21 11:28:19;;;;;;;;;;;;;;;-2.51;79.71;98189.67;1688607;84;20137;-68
2022/01/21 11:30:45;;;;;;;;;;;;;;;-2.49;79.56;98191.55;1689635;85;20102;-68
2022/01/21 11:33:12;;;;;;;;;;;;;;;-2.50;79.70;98184.03;1689264;85;20085;-68
2022/01/21 11:35:38;;;;;;;;;;;;;;;-2.49;79.72;98187.53;1689352;85;20098;-68
2022/01/21 11:38:05;;;;;;;;;;;;;;;-2.48;79.67;98189.14;1689351;85;21114;-68
2022/01/21 11:40:32;;;;;;;;;;;;;;;-2.47;79.58;98175.44;1689423;85;20448;-68
2022/01/21 11:42:58;;;;;;;;;;;;;;;-2.44;79.61;98187.01;1689402;85;20122;-68
2022/01/21 11:50:32;;;;;;;;;;;;;;;-2.41;79.52;98187.02;1689297;85;21166;-68
2022/01/21 11:52:58;;;;;;;;;;;;;;;-2.43;79.26;98187.28;1689493;85;20074;-69
2022/01/21 11:55:36;;;;;;;;;;;;;;;-2.45;79.45;98175.98;1689228;85;20086;-68
2022/01/21 11:58:20;;;;;;;;;;;;;;;-2.45;79.68;98186.73;1689509;85;20078;-68
2022/01/21 12:00:48;;;;;;;;;;;;;;;-2.45;79.70;98187.27;1688624;84;20101;-68
2022/01/21 12:03:23;;;;;;;;;;;;;;;-2.46;80.60;98178.94;1689241;85;21231;-68
2022/01/21 12:05:50;;;;;;;;;;;;;;;-2.48;80.96;98177.05;1689292;85;20097;-68
2022/01/21 12:08:20;;;;;;;;;;;;;;;-2.50;82.38;98187.25;1689385;85;20095;-68
2022/01/21 12:10:46;;;;;;;;;;;;;;;-2.50;82.58;98177.84;1686523;85;20727;-68
2022/01/21 12:13:20;;;;;;;;;;;;;;;-2.52;83.62;98182.68;1689275;85;20097;-68
2022/01/21 12:16:23;;;;;;;;;;;;;;;-2.52;83.81;98171.93;1689363;85;21133;-68
2022/01/21 12:21:38;;;;;;;;;;;;;;;-2.51;84.09;98172.20;1689288;85;20074;-68
2022/01/21 12:24:05;;;;;;;;;;;;;;;-2.52;84.31;98153.12;1689257;84;20231;-68
2022/01/21 12:26:32;;;;;;;;;;;;;;;-2.51;84.45;98173.55;1689296;85;20122;-68
2022/01/21 12:29:02;;;;;;;;;;;;;;;-2.51;84.70;98170.33;1689858;85;21121;-68
2022/01/21 12:31:52;;;;;;;;;;;;;;;-2.50;84.69;98168.44;1689507;85;20404;-68
2022/01/21 12:34:27;;;;;;;;;;;;;;;-2.50;84.64;98177.31;1689462;85;20174;-68
2022/01/21 12:37:00;;;;;;;;;;;;;;;-2.45;84.51;98165.77;1689379;85;20097;-68
2022/01/21 12:39:46;;;;;;;;;;;;;;;-2.36;84.23;98162.84;1689660;85;20160;-68
2022/01/21 12:42:24;;;;;;;;;;;;;;;-2.17;84.00;98168.49;1689373;85;22292;-68
2022/01/21 12:44:56;;;;;;;;;;;;;;;-2.01;82.57;98158.03;1689399;85;20413;-68
2022/01/21 12:47:41;;;;;;;;;;;;;;;-2.00;82.39;98162.33;1689466;85;20102;-68
2022/01/21 12:50:15;;;;;;;;;;;;;;;-2.04;82.11;98178.20;1689388;85;20122;-68
2022/01/21 12:55:55;;;;;;;;;;;;;;;-2.15;82.89;98180.59;1689560;85;21157;-68
2022/01/21 12:58:24;;;;;;;;;;;;;;;-2.19;83.21;98179.52;1689537;85;20404;-68
2022/01/21 13:00:58;;;;;;;;;;;;;;;-2.22;83.55;98186.77;1689276;84;20102;-68
2022/01/21 13:03:53;;;;;;;;;;;;;;;-2.23;83.95;98193.22;1689570;85;20678;-68
2022/01/21 13:06:23;;;;;;;;;;;;;;;-2.25;83.89;98184.61;1689540;85;20098;-68
2022/01/21 13:08:58;;;;;;;;;;;;;;;-2.25;84.47;98192.67;1689441;85;21155;-68
2022/01/21 13:11:24;;;;;;;;;;;;;;;-2.26;84.61;98190.25;1689579;84;20421;-68
2022/01/21 13:14:34;;;;;;;;;;;;;;;-2.28;84.72;98194.55;1689398;85;20098;-68
2022/01/21 13:17:05;;;;;;;;;;;;;;;-2.30;84.96;98203.41;1688901;84;20101;-68
2022/01/21 13:19:44;;;;;;;;;;;;;;;-2.36;85.56;98193.75;1688104;84;20122;-68
2022/01/21 13:22:18;;;;;;;;;;;;;;;-2.40;85.92;98192.66;1689368;85;21718;-68
2022/01/21 13:24:57;;;;;;;;;;;;;;;-2.42;86.44;98186.74;1689136;84;20456;-68
2022/01/21 13:27:18;;;;;;;;;;;;;;;-2.43;87.34;98193.19;1688535;84;20094;-67
2022/01/21 13:29:44;;;;;;;;;;;;;;;-2.45;87.78;98188.08;1689303;85;20098;-67
2022/01/21 13:32:10;;;;;;;;;;;;;;;-2.45;89.13;98199.37;1689499;84;20416;-67
2022/01/21 13:34:39;;;;;;;;;;;;;;;-2.45;89.47;98202.86;1689299;85;21061;-67
2022/01/21 13:37:08;;;;;;;;;;;;;;;-2.48;90.44;98203.92;1689386;85;20424;-67
2022/01/21 13:39:40;;;;;;;;;;;;;;;-2.52;92.98;98202.30;1689339;85;20126;-68
2022/01/21 13:42:15;;;;;;;;;;;;;;;-2.55;96.07;98194.77;1689408;84;20149;-68
2022/01/21 13:44:53;;;;;;;;;;;;;;;-2.58;94.85;98206.03;1689456;85;20118;-68
2022/01/21 13:47:25;;;;;;;;;;;;;;;-2.60;94.74;98195.28;1689318;85;21040;-68
2022/01/21 13:49:52;;;;;;;;;;;;;;;-2.61;95.19;98197.16;1680436;85;20413;-68
2022/01/21 13:52:18;;;;;;;;;;;;;;;-2.65;95.33;98197.41;1678489;85;20122;-68